Flight Track Log - Related Links

Times and Time Zones

All times are in EDT time to prevent confusion due to time zone crossing. See the AUB1736 flight status page for this flight to view local times or setup timezone preferences in your user account.

Time Position Orientation Groundspeed Altitude Reporting Facility
EDT Latitude Longitude Course Direction KTS MPH feet Rate Location/Type
Mon 04:11:00 AM 47.7049 12.6465 138° Southeast  Level Estimated
Mon 04:12:00 AM 47.6116 12.7676 139° Southeast  Level Estimated
Mon 04:13:00 AM 47.5183 12.8883 139° Southeast  Level Estimated
Mon 04:14:00 AM 47.4248 13.0086 139° Southeast  Level Estimated
Mon 04:15:00 AM 47.3312 13.1285 139° Southeast  Level Estimated
Mon 04:16:00 AM 47.2375 13.2479 139° Southeast  Level Estimated
Mon 04:17:00 AM 47.1436 13.3670 139° Southeast  Level Estimated
Mon 04:18:00 AM 47.0497 13.4856 139° Southeast  Level Estimated
Mon 04:19:00 AM 46.9556 13.6038 139° Southeast  Level Estimated
Mon 04:20:00 AM 46.8614 13.7215 139° Southeast  Level Estimated
Mon 04:21:00 AM 46.7670 13.8389 140° Southeast  Level Estimated
Mon 04:22:00 AM 46.6726 13.9558 140° Southeast  Level Estimated
Mon 04:23:00 AM 46.5780 14.0724 140° Southeast  Level Estimated
Mon 04:24:00 AM 46.4833 14.1885 140° Southeast  Level Estimated
Mon 04:25:00 AM 46.3885 14.3042 140° Southeast  Level Estimated
Mon 04:26:00 AM 46.2935 14.4196 140° Southeast  Level Estimated
Mon 04:27:00 AM 46.1985 14.5345 140° Southeast  Level Estimated
Mon 04:28:00 AM 46.1034 14.6490 140° Southeast  Level Estimated
Mon 04:29:00 AM 46.0081 14.7632 140° Southeast  Level Estimated
Mon 04:30:00 AM 45.9127 14.8769 140° Southeast  Level Estimated
Mon 04:31:00 AM 45.8172 14.9902 140° Southeast  Level Estimated
Mon 04:32:00 AM 45.7216 15.1032 140° Southeast  Level Estimated
Mon 04:33:00 AM 45.6259 15.2158 141° Southeast  Level Estimated
Mon 04:34:00 AM 45.5300 15.3280 141° Southeast  Level Estimated
Mon 04:35:00 AM 45.4341 15.4398 141° Southeast  Level Estimated
Mon 04:36:00 AM 45.3381 15.5512 141° Southeast  Level Estimated
Mon 04:37:00 AM 45.2419 15.6623 141° Southeast  Level Estimated
Mon 04:38:00 AM 45.1456 15.7729 141° Southeast  Level Estimated
Mon 04:39:00 AM 45.0493 15.8833 141° Southeast  Level Estimated
Mon 04:40:00 AM 44.9528 15.9932 141° Southeast  Level Estimated
Mon 04:41:00 AM 44.8562 16.1027 141° Southeast  Level Estimated
Mon 04:42:00 AM 44.7595 16.2119 141° Southeast  Level Estimated
Mon 04:43:00 AM 44.6628 16.3208 141° Southeast  Level Estimated
Mon 04:44:00 AM 44.5659 16.4292 141° Southeast  Level Estimated
Mon 04:45:00 AM 44.4689 16.5373 141° Southeast  Level Estimated
Mon 04:46:00 AM 44.3718 16.6451 142° Southeast  Level Estimated
Mon 04:47:00 AM 44.2746 16.7525 142° Southeast  Level Estimated
Mon 04:48:00 AM 44.1773 16.8595 142° Southeast  Level Estimated
Mon 04:49:00 AM 44.0799 16.9662 142° Southeast  Level Estimated
Mon 04:50:00 AM 43.9824 17.0725 142° Southeast  Level Estimated
Mon 04:51:00 AM 43.8848 17.1785 142° Southeast  Level Estimated
Mon 04:52:00 AM 43.7871 17.2842 142° Southeast  Level Estimated
Mon 04:53:00 AM 43.6893 17.3895 142° Southeast  Level Estimated
Mon 04:54:00 AM 43.5914 17.4944 142° Southeast  Level Estimated
Mon 04:55:00 AM 43.4935 17.5990 142° Southeast  Level Estimated
Mon 04:56:00 AM 43.3954 17.7033 142° Southeast  Level Estimated
Mon 04:57:00 AM 43.2972 17.8072 142° Southeast  Level Estimated
Mon 04:58:00 AM 43.1990 17.9108 142° Southeast  Level Estimated
Mon 04:59:00 AM 43.1006 18.0141 143° Southeast  Level Estimated
Mon 05:00:00 AM 43.0022 18.1170 143° Southeast  Level Estimated
Mon 05:01:00 AM 42.8963 18.2273 143° Southeast  Level Estimated
Mon 05:02:00 AM 42.7902 18.3372 143° Southeast  Level Estimated
Mon 05:03:00 AM 42.6841 18.4466 143° Southeast  Level Estimated
Mon 05:04:00 AM 42.5779 18.5558 143° Southeast  Level Estimated
Mon 05:05:00 AM 42.4716 18.6645 143° Southeast  Level Estimated
Mon 05:06:00 AM 42.3652 18.7729 143° Southeast  Level Estimated
Mon 05:07:00 AM 42.2587 18.8809 143° Southeast  Level Estimated
Mon 05:08:00 AM 42.1521 18.9886 143° Southeast  Level Estimated
Mon 05:09:00 AM 42.0453 19.0958 143° Southeast  Level Estimated
Mon 05:10:00 AM 41.9385 19.2028 143° Southeast  Level Estimated
Mon 05:11:00 AM 41.8316 19.3093 143° Southeast  Level Estimated
Mon 05:12:00 AM 41.7246 19.4156 143° Southeast  Level Estimated
Mon 05:13:00 AM 41.6175 19.5214 144° Southeast  Level Estimated
Mon 05:14:00 AM 41.5103 19.6269 144° Southeast  Level Estimated
Mon 05:15:00 AM 41.4147 19.7206 144° Southeast  Level Estimated
Mon 05:16:00 AM 41.4147 19.7206 21° North  Level Estimated
Mon 05:17:00 AM 41.4147 19.7206 21° North  Level Estimated
Mon 05:18:00 AM 41.4147 19.7206 21° North  Level Estimated
Mon 05:19:00 AM 41.4147 19.7206 21° North  Level Estimated
Mon 05:20:00 AM 41.4147 19.7206 21° North  Level Estimated
Mon 05:21:00 AM 41.4147 19.7206 21° North  Level Estimated
Mon 05:22:00 AM 41.4147 19.7206 21° North  Level Estimated
Mon 05:23:00 AM 41.4147 19.7206 21° North  Level Estimated
Mon 05:24:00 AM 41.4147 19.7206 21° North  Level Estimated
Mon 05:25:00 AM 41.4147 19.7206 21° North  Level Estimated
Mon 05:26:00 AM 41.4147 19.7206 21° North  Level Estimated
Mon 05:27:00 AM 41.4147 19.7206 21° North  Level Estimated
Mon 05:28:00 AM 41.4147 19.7206 21° North  Level Estimated
Mon 05:29:00 AM 41.4147 19.7206 21° North  Level Estimated
Mon 05:30:00 AM 41.4147 19.7206 21° North  Level Estimated

Login

Don't have an account? Register now (free) for customized features, flight alerts, and more!